Time;durP1;ratioP1;P1;durP2;ratioP2;P2;SDS_P1;SDS_P2;PMS_P1;PMS_P2;Temp;Humidity;BMP_temperature;BMP_pressure;BME280_temperature;BME280_humidity;BME280_pressure;Samples;Min_cycle;Max_cycle;Signal;HPM_P1;HPM_P2
2021/04/04 00:00:55;;;;;;;26.25;15.57;;;2.30;94.10;;;;;;2105900;28;20032;-68
2021/04/04 00:01:56;;;;;;;22.77;14.65;;;2.30;94.10;;;;;;2106428;28;20082;-69
2021/04/04 00:02:57;;;;;;;23.67;15.48;;;2.30;94.20;;;;;;2106322;28;20024;-69
2021/04/04 00:04:00;;;;;;;22.20;14.23;;;2.30;94.10;;;;;;2106135;28;20055;-70
2021/04/04 00:05:01;;;;;;;23.52;14.45;;;2.20;94.10;;;;;;2106031;28;20040;-68
2021/04/04 00:06:02;;;;;;;23.42;14.65;;;2.20;94.10;;;;;;2105733;28;20028;-70
2021/04/04 00:07:03;;;;;;;23.85;15.35;;;2.20;94.20;;;;;;2106654;28;20016;-70
2021/04/04 00:08:04;;;;;;;24.13;14.98;;;2.20;94.30;;;;;;2106561;28;20032;-70
2021/04/04 00:09:04;;;;;;;21.20;14.35;;;2.20;94.30;;;;;;2106439;28;20103;-69
2021/04/04 00:10:07;;;;;;;24.02;14.90;;;2.10;94.30;;;;;;2104714;28;20123;-70
2021/04/04 00:11:08;;;;;;;21.73;14.40;;;2.20;94.40;;;;;;2105939;28;20077;-70
2021/04/04 00:12:10;;;;;;;22.25;14.55;;;2.10;94.40;;;;;;2106468;28;20101;-70
2021/04/04 00:13:11;;;;;;;25.20;14.55;;;2.10;94.40;;;;;;2106089;28;20403;-71
2021/04/04 00:14:11;;;;;;;22.90;14.30;;;2.10;94.50;;;;;;2106542;28;20106;-70
2021/04/04 00:15:15;;;;;;;24.10;14.68;;;2.10;94.60;;;;;;2106451;28;20044;-70
2021/04/04 00:16:15;;;;;;;24.42;15.27;;;2.10;94.60;;;;;;2105911;28;20106;-70
2021/04/04 00:17:16;;;;;;;22.55;15.07;;;2.10;94.60;;;;;;2097315;28;20325;-70
2021/04/04 00:18:17;;;;;;;23.52;15.90;;;2.10;94.70;;;;;;2105808;28;20079;-70
2021/04/04 00:19:17;;;;;;;27.77;17.60;;;2.10;94.90;;;;;;2106354;28;20406;-69
2021/04/04 00:20:18;;;;;;;26.67;17.52;;;2.10;95.20;;;;;;2106582;28;20025;-70
2021/04/04 00:21:19;;;;;;;28.17;17.98;;;2.10;95.40;;;;;;2106532;28;20099;-70
2021/04/04 00:22:20;;;;;;;29.40;18.45;;;2.10;95.40;;;;;;2106721;28;20024;-69
2021/04/04 00:23:21;;;;;;;27.58;18.05;;;2.10;95.60;;;;;;2107867;28;20038;-70
2021/04/04 00:24:21;;;;;;;28.42;17.50;;;2.10;95.60;;;;;;2111178;28;20326;-69
2021/04/04 00:25:22;;;;;;;27.90;18.25;;;2.10;95.60;;;;;;2110496;28;20714;-70
2021/04/04 00:26:23;;;;;;;26.52;18.23;;;2.10;95.70;;;;;;2111000;28;20024;-70
2021/04/04 00:27:23;;;;;;;25.55;18.60;;;2.10;95.70;;;;;;2110742;28;20043;-70
2021/04/04 00:28:24;;;;;;;28.42;18.08;;;2.10;95.80;;;;;;2110878;28;20027;-69
2021/04/04 00:29:24;;;;;;;26.83;17.75;;;2.00;95.80;;;;;;2110433;28;20016;-70
2021/04/04 00:30:25;;;;;;;27.00;17.83;;;2.00;95.80;;;;;;2109719;28;20571;-69
2021/04/04 00:31:26;;;;;;;26.70;18.35;;;2.00;95.90;;;;;;2106931;28;20556;-70
2021/04/04 00:32:27;;;;;;;28.85;19.00;;;2.00;96.30;;;;;;2106429;28;20023;-70
2021/04/04 00:33:27;;;;;;;28.27;18.50;;;2.00;96.00;;;;;;2105935;28;20462;-70
2021/04/04 00:34:28;;;;;;;25.88;17.98;;;2.00;96.40;;;;;;2106230;28;20028;-70
2021/04/04 00:35:28;;;;;;;28.63;19.05;;;2.00;96.10;;;;;;2105491;28;20023;-70
2021/04/04 00:36:29;;;;;;;27.70;17.95;;;2.00;96.10;;;;;;2105652;28;20035;-70
2021/04/04 00:37:30;;;;;;;29.23;18.35;;;2.00;96.10;;;;;;2106166;28;20034;-70
2021/04/04 00:38:31;;;;;;;28.73;18.73;;;2.00;96.20;;;;;;2106198;28;20661;-70
2021/04/04 00:39:31;;;;;;;30.77;19.50;;;1.90;96.20;;;;;;2106321;28;20024;-70
2021/04/04 00:40:34;;;;;;;27.70;18.83;;;2.00;96.20;;;;;;2106133;28;20024;-70
2021/04/04 00:41:35;;;;;;;28.88;19.50;;;2.00;96.30;;;;;;2106209;28;20103;-70
2021/04/04 00:42:36;;;;;;;27.92;18.38;;;2.00;96.30;;;;;;2105960;28;20042;-70
2021/04/04 00:43:37;;;;;;;26.13;17.45;;;1.90;96.20;;;;;;2105169;28;20039;-70
2021/04/04 00:44:37;;;;;;;23.67;15.60;;;1.90;96.10;;;;;;2105530;28;20129;-70
2021/04/04 00:45:39;;;;;;;21.92;14.30;;;1.90;95.90;;;;;;2106089;28;20382;-70
2021/04/04 00:46:40;;;;;;;24.35;14.57;;;1.90;95.80;;;;;;2105468;28;20028;-69
2021/04/04 00:47:41;;;;;;;23.75;13.88;;;1.90;95.60;;;;;;2105513;28;20098;-70
2021/04/04 00:48:41;;;;;;;24.17;13.18;;;1.90;95.50;;;;;;2106068;28;20411;-70
2021/04/04 00:49:42;;;;;;;27.45;14.15;;;1.80;95.50;;;;;;2105372;28;20363;-70
2021/04/04 00:50:42;;;;;;;23.42;13.82;;;1.80;95.20;;;;;;2105367;28;20028;-69
2021/04/04 00:51:44;;;;;;;23.40;12.88;;;1.80;95.10;;;;;;2106054;28;20038;-69
2021/04/04 00:52:51;;;;;;;25.65;13.40;;;1.80;95.10;;;;;;2106023;28;20016;-69
2021/04/04 00:53:52;;;;;;;22.10;12.45;;;1.80;94.90;;;;;;2105749;28;20085;-69
2021/04/04 00:54:53;;;;;;;23.88;12.05;;;1.80;94.90;;;;;;2105988;28;20103;-69
2021/04/04 00:55:54;;;;;;;19.60;11.50;;;1.70;94.80;;;;;;2106012;28;20103;-69
2021/04/04 00:56:54;;;;;;;20.58;11.40;;;1.70;94.70;;;;;;2105202;28;20162;-69
2021/04/04 00:57:55;;;;;;;19.50;11.10;;;1.70;94.70;;;;;;2105351;28;20024;-69
2021/04/04 00:58:57;;;;;;;18.90;10.88;;;1.70;94.60;;;;;;2106065;28;20451;-69
2021/04/04 00:59:58;;;;;;;16.55;10.85;;;1.70;94.60;;;;;;2106070;28;20127;-70
2021/04/04 01:00:59;;;;;;;19.30;11.18;;;1.70;94.50;;;;;;2105914;28;20382;-69
2021/04/04 01:02:00;;;;;;;19.15;11.30;;;1.60;94.50;;;;;;2105345;28;20036;-70
2021/04/04 01:03:04;;;;;;;18.75;11.05;;;1.60;94.50;;;;;;2105810;28;20098;-69
2021/04/04 01:04:04;;;;;;;20.05;11.82;;;1.60;94.50;;;;;;2105794;28;20082;-69
2021/04/04 01:05:07;;;;;;;22.02;11.88;;;1.60;94.50;;;;;;2105940;28;20483;-69
2021/04/04 01:06:08;;;;;;;19.13;11.48;;;1.60;94.60;;;;;;2105983;28;20028;-69
2021/04/04 01:07:09;;;;;;;23.35;12.20;;;1.60;94.60;;;;;;2105940;28;20020;-70
2021/04/04 01:08:10;;;;;;;20.77;11.98;;;1.60;94.50;;;;;;2105148;28;20513;-69
2021/04/04 01:09:10;;;;;;;19.45;12.05;;;1.60;94.50;;;;;;2105212;28;20069;-69
2021/04/04 01:10:12;;;;;;;20.83;12.10;;;1.60;94.50;;;;;;2105917;28;20032;-70
2021/04/04 01:11:21;;;;;;;23.45;12.85;;;1.60;94.50;;;;;;2105073;28;20096;-69
2021/04/04 01:13:00;;;;;;;22.45;12.48;;;1.60;94.50;;;;;;2105418;28;20024;-69
2021/04/04 01:14:09;;;;;;;26.55;13.05;;;1.60;94.60;;;;;;2104782;28;20067;-69
2021/04/04 01:15:18;;;;;;;27.85;13.98;;;1.60;94.70;;;;;;2089692;28;20025;-70
2021/04/04 01:16:28;;;;;;;28.90;14.88;;;1.70;94.70;;;;;;2098031;28;20028;-69
2021/04/04 01:17:32;;;;;;;25.50;14.25;;;1.70;94.70;;;;;;2105958;28;20085;-69
2021/04/04 01:18:37;;;;;;;29.67;15.60;;;1.70;94.70;;;;;;2105846;28;20028;-69
2021/04/04 01:20:18;;;;;;;34.78;16.52;;;1.70;94.70;;;;;;2105787;28;20032;-69
2021/04/04 01:21:25;;;;;;;28.50;15.13;;;1.70;94.70;;;;;;2105126;28;20044;-69
2021/04/04 01:22:54;;;;;;;26.38;15.43;;;1.70;94.70;;;;;;2105856;28;20047;-69
2021/04/04 01:24:10;;;;;;;27.88;15.43;;;1.70;94.80;;;;;;2071359;28;20460;-69
2021/04/04 01:25:25;;;;;;;26.55;15.88;;;1.70;94.90;;;;;;2068987;28;20046;-68
2021/04/04 01:26:51;;;;;;;25.95;15.73;;;1.60;95.00;;;;;;2105454;28;20129;-69
2021/04/04 01:28:06;;;;;;;28.13;16.08;;;1.60;95.10;;;;;;2105916;28;20025;-69
2021/04/04 01:29:09;;;;;;;28.90;16.35;;;1.60;95.20;;;;;;2105068;28;20080;-69
2021/04/04 01:30:12;;;;;;;26.13;15.52;;;1.60;95.30;;;;;;2105130;28;20016;-69
2021/04/04 01:31:14;;;;;;;25.70;14.82;;;1.60;95.30;;;;;;2105649;28;20479;-70
2021/04/04 01:32:14;;;;;;;23.75;12.65;;;1.50;95.20;;;;;;2105711;28;20100;-69
2021/04/04 01:33:18;;;;;;;20.92;12.18;;;1.50;95.00;;;;;;2105400;28;20032;-69
2021/04/04 01:34:23;;;;;;;20.52;11.35;;;1.50;94.90;;;;;;2105709;28;20491;-69
2021/04/04 01:35:27;;;;;;;21.52;11.30;;;1.50;94.90;;;;;;2105698;28;20020;-69
2021/04/04 01:36:31;;;;;;;17.33;10.30;;;1.50;94.90;;;;;;2105741;28;20387;-70
2021/04/04 01:37:32;;;;;;;16.35;9.77;;;1.40;94.70;;;;;;2105692;28;20061;-69
2021/04/04 01:38:41;;;;;;;15.77;9.80;;;1.40;94.70;;;;;;2105704;28;20024;-70
2021/04/04 01:39:47;;;;;;;15.90;9.73;;;1.40;94.60;;;;;;2105865;28;20081;-69
2021/04/04 01:40:52;;;;;;;14.25;9.25;;;1.40;94.50;;;;;;2105725;28;20040;-69
2021/04/04 01:41:54;;;;;;;15.35;9.52;;;1.30;94.50;;;;;;2105764;28;20077;-69
2021/04/04 01:42:56;;;;;;;16.25;10.35;;;1.30;94.50;;;;;;2105552;28;20036;-69
2021/04/04 01:44:03;;;;;;;17.40;9.90;;;1.30;94.60;;;;;;2105548;28;20368;-70
2021/04/04 01:45:08;;;;;;;16.25;9.75;;;1.30;94.60;;;;;;2105654;28;20032;-70
2021/04/04 01:46:10;;;;;;;15.15;9.88;;;1.20;94.60;;;;;;2105628;28;20383;-70
2021/04/04 01:47:12;;;;;;;16.05;9.77;;;1.20;94.70;;;;;;2104984;28;20024;-69
2021/04/04 01:48:13;;;;;;;14.63;9.30;;;1.20;94.80;;;;;;2104993;28;20166;-70
2021/04/04 01:49:16;;;;;;;13.73;9.60;;;1.20;94.80;;;;;;2104981;28;20034;-69
2021/04/04 01:50:17;;;;;;;19.10;10.68;;;1.10;94.80;;;;;;2104959;28;20115;-70
2021/04/04 01:51:18;;;;;;;21.95;11.77;;;1.20;94.90;;;;;;2104989;28;20155;-69
2021/04/04 01:52:20;;;;;;;20.90;11.98;;;1.10;94.90;;;;;;2105025;28;20024;-70
2021/04/04 01:53:22;;;;;;;23.30;11.95;;;1.10;95.00;;;;;;2104736;28;20040;-69
2021/04/04 01:54:24;;;;;;;24.10;13.00;;;1.10;95.00;;;;;;2105176;28;20028;-69
2021/04/04 01:55:26;;;;;;;28.17;13.50;;;1.10;95.10;;;;;;2105039;28;20051;-69
2021/04/04 01:56:27;;;;;;;31.70;14.65;;;1.10;95.20;;;;;;2104761;28;20075;-70
2021/04/04 01:57:30;;;;;;;27.85;14.43;;;1.10;95.20;;;;;;2104964;28;20024;-69
2021/04/04 01:58:32;;;;;;;28.88;14.18;;;1.10;95.20;;;;;;2104950;28;20472;-70
2021/04/04 01:59:33;;;;;;;27.60;14.95;;;1.10;95.20;;;;;;2105430;28;20487;-70
2021/04/04 02:00:34;;;;;;;31.42;15.38;;;1.00;95.20;;;;;;2105023;28;20107;-70
2021/04/04 02:01:36;;;;;;;37.15;18.52;;;1.00;95.20;;;;;;2096653;28;20044;-70
2021/04/04 02:02:36;;;;;;;34.90;17.90;;;1.00;95.30;;;;;;2104872;28;20506;-70
2021/04/04 02:03:38;;;;;;;31.30;17.23;;;1.10;95.10;;;;;;2105231;28;20032;-70
2021/04/04 02:04:39;;;;;;;28.55;14.57;;;1.10;95.00;;;;;;2105723;28;20070;-70
2021/04/04 02:05:41;;;;;;;25.58;14.02;;;1.10;94.80;;;;;;2105546;28;20032;-69
2021/04/04 02:06:43;;;;;;;28.00;14.93;;;1.10;94.80;;;;;;2105540;28;20020;-69
2021/04/04 02:07:47;;;;;;;26.20;14.52;;;1.10;94.80;;;;;;2105524;28;20039;-69
2021/04/04 02:08:47;;;;;;;27.20;15.38;;;1.10;94.70;;;;;;2105531;28;20042;-69
2021/04/04 02:09:49;;;;;;;23.98;13.95;;;1.00;94.60;;;;;;2105531;28;20016;-70
2021/04/04 02:10:50;;;;;;;21.98;13.50;;;1.10;94.70;;;;;;2104687;28;20085;-69
2021/04/04 02:11:53;;;;;;;23.25;13.10;;;1.00;94.70;;;;;;2104925;28;20028;-69
2021/04/04 02:12:57;;;;;;;22.83;13.50;;;1.00;94.70;;;;;;2105478;28;20028;-69
2021/04/04 02:14:01;;;;;;;22.90;13.43;;;1.00;94.70;;;;;;2105135;28;20024;-69
2021/04/04 02:15:05;;;;;;;24.65;14.23;;;1.00;94.80;;;;;;2105690;28;20051;-69
2021/04/04 02:16:08;;;;;;;23.52;14.40;;;0.90;94.80;;;;;;2105583;28;20036;-69
2021/04/04 02:17:09;;;;;;;25.08;15.30;;;0.90;94.80;;;;;;2104751;28;20050;-70
2021/04/04 02:18:10;;;;;;;24.42;14.95;;;0.90;94.80;;;;;;2104851;28;20097;-70
2021/04/04 02:19:13;;;;;;;22.95;14.15;;;0.90;94.80;;;;;;2105418;28;20740;-70
2021/04/04 02:20:16;;;;;;;23.42;14.13;;;0.90;94.80;;;;;;2105292;28;20020;-70
2021/04/04 02:21:18;;;;;;;21.33;13.30;;;0.90;94.80;;;;;;2104752;28;20031;-69
2021/04/04 02:22:19;;;;;;;19.02;11.52;;;0.90;94.70;;;;;;2104726;28;20498;-69
2021/04/04 02:23:22;;;;;;;17.27;11.20;;;0.90;94.70;;;;;;2105138;28;20028;-69
2021/04/04 02:24:25;;;;;;;19.45;11.13;;;0.90;94.70;;;;;;2105509;28;20023;-69
2021/04/04 02:25:26;;;;;;;18.50;11.10;;;0.90;94.70;;;;;;2105555;28;20036;-69
2021/04/04 02:26:30;;;;;;;17.52;10.95;;;0.90;94.70;;;;;;2105397;28;20487;-69
2021/04/04 02:27:30;;;;;;;17.63;10.73;;;0.90;94.70;;;;;;2105491;28;20057;-69
2021/04/04 02:28:31;;;;;;;17.30;10.55;;;0.90;94.70;;;;;;2105392;28;20036;-70
2021/04/04 02:29:32;;;;;;;16.27;10.65;;;0.90;94.70;;;;;;2105280;28;20364;-70
2021/04/04 02:30:34;;;;;;;15.88;10.25;;;0.90;94.70;;;;;;2105426;28;20028;-69
2021/04/04 02:31:43;;;;;;;16.08;10.40;;;0.80;94.70;;;;;;2105367;28;20518;-69
2021/04/04 02:32:46;;;;;;;15.00;9.85;;;0.80;94.70;;;;;;2105051;28;20024;-70
2021/04/04 02:33:53;;;;;;;17.50;10.57;;;0.80;94.70;;;;;;2104315;28;20032;-69
2021/04/04 02:34:58;;;;;;;17.83;10.38;;;0.80;94.80;;;;;;2104774;28;20039;-69
2021/04/04 02:36:11;;;;;;;16.23;10.35;;;0.80;94.80;;;;;;2105242;28;20053;-70
2021/04/04 02:37:14;;;;;;;17.10;9.82;;;0.80;95.00;;;;;;2105268;28;20031;-69
2021/04/04 02:38:18;;;;;;;17.15;10.43;;;0.80;95.00;;;;;;2105367;28;20043;-70
2021/04/04 02:39:26;;;;;;;16.67;10.52;;;0.80;95.00;;;;;;2105257;28;20032;-69
2021/04/04 02:40:28;;;;;;;17.65;10.95;;;0.80;95.00;;;;;;2105396;28;20016;-69
2021/04/04 02:41:30;;;;;;;20.63;12.05;;;0.80;95.10;;;;;;2105288;28;20400;-69
2021/04/04 02:42:31;;;;;;;24.55;14.10;;;0.80;95.10;;;;;;2104507;28;20069;-70
2021/04/04 02:43:34;;;;;;;25.83;15.05;;;0.90;95.10;;;;;;2104279;28;20102;-69
2021/04/04 02:44:36;;;;;;;29.27;15.57;;;0.80;95.10;;;;;;2105278;28;20024;-69
2021/04/04 02:45:37;;;;;;;28.15;15.48;;;0.80;95.10;;;;;;2105347;28;20028;-69
2021/04/04 02:46:39;;;;;;;24.73;13.70;;;0.80;95.10;;;;;;2105350;28;20393;-70
2021/04/04 02:47:50;;;;;;;26.23;13.13;;;0.80;95.10;;;;;;2105312;28;20051;-70
2021/04/04 02:49:02;;;;;;;29.15;16.20;;;0.80;95.10;;;;;;2105279;28;20050;-69
2021/04/04 02:50:05;;;;;;;41.20;22.52;;;0.80;95.20;;;;;;2104524;28;20021;-69
2021/04/04 02:51:08;;;;;;;40.25;21.73;;;0.90;95.30;;;;;;2104466;28;20198;-69
2021/04/04 02:52:11;;;;;;;36.75;21.50;;;0.80;95.20;;;;;;2105192;28;20051;-69
2021/04/04 02:53:12;;;;;;;36.25;20.85;;;0.80;95.10;;;;;;2104791;28;20020;-69
2021/04/04 02:54:21;;;;;;;38.38;20.85;;;0.80;95.10;;;;;;2105171;28;20039;-69
2021/04/04 02:55:23;;;;;;;38.63;22.00;;;0.80;95.20;;;;;;2105141;28;20465;-70
2021/04/04 02:56:25;;;;;;;33.08;19.10;;;0.80;95.20;;;;;;2105166;28;20032;-69
2021/04/04 02:57:30;;;;;;;25.17;14.93;;;0.80;95.20;;;;;;2105181;28;20479;-69
2021/04/04 02:58:32;;;;;;;26.30;15.30;;;0.80;95.50;;;;;;2104531;28;20012;-69
2021/04/04 02:59:33;;;;;;;28.60;16.40;;;0.80;95.40;;;;;;2104561;28;20032;-69
2021/04/04 03:00:40;;;;;;;27.48;15.10;;;0.80;95.40;;;;;;2105157;28;20059;-69
2021/04/04 03:01:42;;;;;;;24.92;14.27;;;0.80;95.30;;;;;;2105224;28;20388;-70
2021/04/04 03:02:42;;;;;;;21.23;12.82;;;0.80;95.20;;;;;;2105133;28;20032;-69
2021/04/04 03:03:46;;;;;;;24.15;14.05;;;0.80;95.20;;;;;;2104971;28;20399;-69
2021/04/04 03:04:49;;;;;;;25.63;13.98;;;0.80;95.20;;;;;;2105312;28;20430;-69
2021/04/04 03:05:51;;;;;;;24.65;14.32;;;0.70;95.10;;;;;;2105185;28;20024;-70
2021/04/04 03:06:52;;;;;;;23.15;14.35;;;0.70;95.20;;;;;;2105257;28;20149;-69
2021/04/04 03:07:56;;;;;;;23.83;13.95;;;0.70;95.20;;;;;;2105251;28;20029;-69
2021/04/04 03:08:58;;;;;;;24.52;15.02;;;0.70;95.30;;;;;;2105474;28;20039;-69
2021/04/04 03:10:02;;;;;;;24.30;14.38;;;0.70;95.30;;;;;;2105310;28;20490;-69
2021/04/04 03:11:03;;;;;;;25.55;14.80;;;0.70;95.40;;;;;;2104557;28;20036;-70
2021/04/04 03:12:05;;;;;;;22.40;13.77;;;0.60;95.40;;;;;;2104679;28;20058;-69
2021/04/04 03:13:06;;;;;;;25.02;14.50;;;0.60;95.50;;;;;;2105118;28;20034;-69
2021/04/04 03:14:08;;;;;;;23.83;14.23;;;0.60;95.50;;;;;;2104826;28;20035;-69
2021/04/04 03:15:12;;;;;;;24.70;14.93;;;0.60;95.50;;;;;;2104563;28;20028;-69
2021/04/04 03:16:14;;;;;;;24.52;14.93;;;0.60;95.50;;;;;;2104714;28;20028;-70
2021/04/04 03:17:16;;;;;;;23.05;14.52;;;0.60;95.60;;;;;;2105118;28;20483;-69
2021/04/04 03:18:21;;;;;;;25.58;15.25;;;0.60;95.60;;;;;;2105139;28;20396;-70
2021/04/04 03:19:23;;;;;;;24.20;14.70;;;0.50;95.80;;;;;;2105173;28;20031;-69
2021/04/04 03:20:26;;;;;;;25.60;15.05;;;0.50;95.60;;;;;;2104691;28;20028;-69
2021/04/04 03:21:29;;;;;;;24.35;15.00;;;0.50;95.70;;;;;;2104600;28;20098;-69
2021/04/04 03:22:30;;;;;;;22.52;14.48;;;0.50;95.70;;;;;;2105225;28;20051;-69
2021/04/04 03:23:31;;;;;;;23.15;13.55;;;0.50;96.00;;;;;;2105126;28;20107;-69
2021/04/04 03:24:32;;;;;;;20.60;13.13;;;0.50;95.80;;;;;;2104707;28;20020;-69
2021/04/04 03:25:34;;;;;;;25.73;14.40;;;0.50;95.70;;;;;;2104752;28;20028;-69
2021/04/04 03:26:36;;;;;;;26.45;14.98;;;0.60;95.70;;;;;;2104861;28;20040;-69
2021/04/04 03:27:39;;;;;;;21.45;13.63;;;0.50;95.60;;;;;;2105429;28;20024;-69
2021/04/04 03:28:41;;;;;;;22.67;13.93;;;0.50;95.70;;;;;;2105297;28;20027;-69
2021/04/04 03:29:42;;;;;;;22.77;13.93;;;0.50;95.60;;;;;;2105258;28;20028;-69
2021/04/04 03:30:47;;;;;;;21.33;13.75;;;0.50;95.60;;;;;;2105052;28;20519;-69
2021/04/04 03:31:49;;;;;;;22.75;13.40;;;0.50;95.60;;;;;;2105294;28;20507;-70
2021/04/04 03:32:50;;;;;;;18.55;11.70;;;0.50;95.60;;;;;;2105274;28;20566;-69
2021/04/04 03:33:51;;;;;;;20.02;11.35;;;0.50;95.70;;;;;;2104939;28;20028;-69
2021/04/04 03:34:52;;;;;;;19.38;12.10;;;0.50;95.70;;;;;;2105338;28;20017;-69
2021/04/04 03:35:54;;;;;;;17.80;12.18;;;0.50;95.70;;;;;;2104601;28;20438;-69
2021/04/04 03:36:56;;;;;;;15.93;11.07;;;0.40;95.70;;;;;;2104550;28;20067;-70
2021/04/04 03:37:59;;;;;;;17.48;11.30;;;0.50;95.80;;;;;;2105135;28;20020;-69
2021/04/04 03:39:00;;;;;;;17.80;11.35;;;0.40;95.70;;;;;;2105156;28;20024;-69
2021/04/04 03:40:01;;;;;;;18.33;12.35;;;0.40;95.80;;;;;;2105199;28;20143;-69
2021/04/04 03:41:01;;;;;;;18.15;12.00;;;0.40;95.90;;;;;;2105230;28;20032;-69
2021/04/04 03:42:03;;;;;;;21.83;11.98;;;0.40;95.90;;;;;;2105017;28;20484;-69
2021/04/04 03:43:11;;;;;;;16.55;11.50;;;0.40;96.00;;;;;;2105172;28;20040;-69
2021/04/04 03:44:16;;;;;;;19.08;12.10;;;0.40;96.10;;;;;;2104982;28;20028;-69
2021/04/04 03:45:18;;;;;;;19.05;12.30;;;0.40;96.10;;;;;;2106143;28;20028;-69
2021/04/04 03:46:24;;;;;;;18.38;12.52;;;0.40;96.10;;;;;;2106748;28;20039;-69
2021/04/04 03:47:25;;;;;;;21.27;12.85;;;0.40;96.10;;;;;;2106825;28;20106;-69
2021/04/04 03:48:28;;;;;;;19.90;12.68;;;0.40;96.10;;;;;;2106713;28;20043;-69
2021/04/04 03:49:29;;;;;;;21.15;12.48;;;0.40;96.10;;;;;;2107024;28;20032;-69
2021/04/04 03:50:33;;;;;;;20.38;12.63;;;0.40;96.10;;;;;;2106117;28;20506;-69
2021/04/04 03:51:34;;;;;;;18.75;12.32;;;0.40;96.10;;;;;;2108259;28;20032;-69
2021/04/04 03:52:37;;;;;;;21.15;12.65;;;0.40;96.10;;;;;;2107242;28;20491;-69
2021/04/04 03:53:41;;;;;;;18.52;12.25;;;0.40;96.20;;;;;;2097943;28;20032;-69
2021/04/04 03:54:43;;;;;;;18.83;12.07;;;0.40;96.30;;;;;;2107662;28;20031;-69
2021/04/04 03:55:46;;;;;;;20.60;12.75;;;0.40;96.30;;;;;;2109352;28;20032;-69
2021/04/04 03:56:49;;;;;;;21.38;12.07;;;0.40;96.20;;;;;;2110067;28;20474;-69
2021/04/04 03:57:52;;;;;;;20.60;12.63;;;0.40;96.30;;;;;;2110299;28;20054;-69
2021/04/04 03:58:57;;;;;;;21.17;12.60;;;0.40;96.40;;;;;;2107644;28;20487;-69
2021/04/04 03:59:59;;;;;;;20.83;12.35;;;0.40;96.30;;;;;;2107210;28;20028;-68
2021/04/04 04:01:02;;;;;;;20.58;12.93;;;0.30;96.30;;;;;;2108450;28;20393;-68
2021/04/04 04:02:03;;;;;;;18.73;12.55;;;0.30;96.30;;;;;;2107345;28;20127;-69
2021/04/04 04:03:06;;;;;;;21.98;13.02;;;0.30;96.30;;;;;;2098192;28;20024;-68
2021/04/04 04:04:12;;;;;;;21.50;13.05;;;0.30;96.30;;;;;;2106339;28;20035;-69
2021/04/04 04:05:15;;;;;;;22.23;13.23;;;0.30;96.30;;;;;;2107175;28;20016;-69
2021/04/04 04:06:17;;;;;;;20.40;12.70;;;0.30;96.40;;;;;;2106865;28;20028;-68
2021/04/04 04:07:20;;;;;;;21.25;13.23;;;0.20;96.40;;;;;;2106064;28;20051;-68
2021/04/04 04:08:21;;;;;;;20.40;12.55;;;0.20;96.50;;;;;;2098043;28;20032;-68
2021/04/04 04:09:22;;;;;;;20.92;12.40;;;0.30;96.60;;;;;;2106154;28;20115;-68
2021/04/04 04:10:23;;;;;;;20.83;12.95;;;0.30;96.60;;;;;;2106596;28;20402;-68
2021/04/04 04:11:24;;;;;;;19.95;12.95;;;0.20;96.50;;;;;;2106668;28;20031;-69
2021/04/04 04:12:27;;;;;;;20.25;13.43;;;0.20;96.60;;;;;;2107593;28;20020;-69
2021/04/04 04:13:29;;;;;;;20.92;12.40;;;0.20;96.60;;;;;;2105767;28;20052;-68
2021/04/04 04:14:30;;;;;;;20.83;12.93;;;0.20;96.60;;;;;;2106124;28;20149;-68
2021/04/04 04:15:31;;;;;;;21.25;12.93;;;0.20;96.60;;;;;;2106605;28;20028;-68
2021/04/04 04:16:36;;;;;;;21.40;13.57;;;0.20;96.70;;;;;;2106040;28;20035;-68
2021/04/04 04:17:37;;;;;;;20.20;13.05;;;0.20;96.70;;;;;;2106169;28;20016;-68
2021/04/04 04:18:45;;;;;;;21.15;13.07;;;0.20;96.70;;;;;;2106439;28;20077;-68
2021/04/04 04:19:46;;;;;;;21.63;12.82;;;0.20;96.80;;;;;;2105910;28;20028;-68
2021/04/04 04:20:47;;;;;;;20.20;12.93;;;0.20;96.80;;;;;;2105951;28;20024;-68
2021/04/04 04:21:49;;;;;;;21.40;12.88;;;0.20;96.80;;;;;;2106776;28;20107;-69
2021/04/04 04:22:50;;;;;;;18.77;12.32;;;0.20;96.90;;;;;;2106618;28;20074;-68
2021/04/04 04:23:51;;;;;;;19.38;12.85;;;0.20;96.80;;;;;;2106211;28;20141;-68
2021/04/04 04:24:53;;;;;;;20.60;13.07;;;0.20;96.90;;;;;;2106823;28;20089;-69
2021/04/04 04:25:54;;;;;;;21.88;13.75;;;0.20;96.90;;;;;;2106441;28;20027;-69
2021/04/04 04:26:56;;;;;;;21.90;13.48;;;0.20;97.00;;;;;;2106522;28;20028;-68
2021/04/04 04:27:57;;;;;;;19.27;13.00;;;0.20;97.00;;;;;;2106532;28;20016;-69
2021/04/04 04:28:59;;;;;;;22.58;13.60;;;0.30;97.00;;;;;;2106234;28;20059;-69
2021/04/04 04:30:02;;;;;;;20.52;12.95;;;0.30;96.90;;;;;;2106429;28;20028;-69
2021/04/04 04:31:09;;;;;;;20.58;13.35;;;0.30;96.90;;;;;;2106375;28;20078;-69
2021/04/04 04:32:12;;;;;;;20.98;13.68;;;0.30;97.00;;;;;;2105786;28;20086;-70
2021/04/04 04:33:16;;;;;;;21.35;13.98;;;0.30;96.90;;;;;;2105293;28;20028;-69
2021/04/04 04:34:19;;;;;;;21.02;14.13;;;0.20;96.90;;;;;;2106325;28;20016;-69
2021/04/04 04:35:21;;;;;;;22.35;14.45;;;0.30;97.00;;;;;;2106324;28;20100;-69
2021/04/04 04:36:23;;;;;;;22.85;14.65;;;0.30;97.00;;;;;;2105510;28;20039;-69
2021/04/04 04:37:23;;;;;;;22.40;14.93;;;0.20;97.00;;;;;;2106069;28;20482;-69
2021/04/04 04:38:25;;;;;;;22.05;14.60;;;0.30;97.10;;;;;;2106818;28;20115;-69
2021/04/04 04:39:26;;;;;;;21.88;13.57;;;0.30;97.10;;;;;;2106086;28;20036;-69
2021/04/04 04:40:27;;;;;;;20.40;13.82;;;0.30;97.10;;;;;;2097539;28;20107;-69
2021/04/04 04:41:32;;;;;;;19.80;13.02;;;0.30;97.10;;;;;;2106120;28;20550;-69
2021/04/04 04:42:36;;;;;;;21.70;13.40;;;0.30;97.10;;;;;;2098258;28;20115;-69
2021/04/04 04:43:39;;;;;;;19.48;12.57;;;0.30;97.10;;;;;;2106309;28;20507;-69
2021/04/04 04:44:43;;;;;;;22.10;13.65;;;0.30;97.00;;;;;;2107180;28;20391;-69
2021/04/04 04:45:46;;;;;;;19.00;12.68;;;0.30;97.10;;;;;;2107648;28;20028;-69
2021/04/04 04:46:47;;;;;;;20.52;12.40;;;0.30;97.00;;;;;;2109082;28;20036;-69
2021/04/04 04:47:51;;;;;;;17.05;12.35;;;0.30;97.10;;;;;;2109336;28;20638;-69
2021/04/04 04:48:52;;;;;;;21.48;13.15;;;0.40;97.10;;;;;;2109404;28;20032;-69
2021/04/04 04:49:53;;;;;;;22.20;13.65;;;0.40;97.10;;;;;;2108088;28;20021;-69
2021/04/04 04:50:53;;;;;;;20.67;13.05;;;0.40;97.10;;;;;;2107998;28;20036;-69
2021/04/04 04:51:54;;;;;;;21.58;13.18;;;0.40;97.10;;;;;;2107609;28;20510;-69
2021/04/04 04:52:58;;;;;;;21.05;12.88;;;0.40;97.00;;;;;;2108161;28;20391;-69
2021/04/04 04:53:59;;;;;;;20.58;12.68;;;0.40;97.00;;;;;;2108041;28;20012;-69
2021/04/04 04:54:59;;;;;;;19.02;13.10;;;0.40;97.00;;;;;;2106734;28;20117;-69
2021/04/04 04:56:04;;;;;;;21.25;12.57;;;0.40;97.00;;;;;;2106169;28;20032;-69
2021/04/04 04:57:05;;;;;;;19.77;13.05;;;0.50;97.00;;;;;;2107751;28;20024;-69
2021/04/04 04:58:07;;;;;;;19.10;12.70;;;0.50;96.90;;;;;;2107360;28;20058;-69
2021/04/04 04:59:08;;;;;;;18.58;12.10;;;0.50;96.90;;;;;;2106820;28;20059;-69
2021/04/04 05:00:10;;;;;;;19.02;12.57;;;0.50;96.90;;;;;;2107050;28;20027;-69
2021/04/04 05:01:14;;;;;;;19.63;12.52;;;0.50;96.90;;;;;;2097654;28;20028;-69
2021/04/04 05:02:17;;;;;;;18.50;12.15;;;0.50;97.00;;;;;;2098414;28;20094;-69
2021/04/04 05:03:18;;;;;;;19.30;11.82;;;0.50;96.90;;;;;;2106307;28;20031;-69
2021/04/04 05:04:19;;;;;;;21.50;12.38;;;0.50;96.80;;;;;;2106105;28;20046;-69
2021/04/04 05:05:20;;;;;;;18.80;12.18;;;0.60;96.80;;;;;;2106047;28;20032;-69
2021/04/04 05:06:26;;;;;;;18.13;11.98;;;0.60;96.80;;;;;;2106304;28;20047;-69
2021/04/04 05:07:29;;;;;;;19.25;11.82;;;0.70;96.90;;;;;;2105614;28;20039;-69
2021/04/04 05:08:32;;;;;;;18.17;11.65;;;0.80;96.90;;;;;;2105609;28;20024;-69
2021/04/04 05:09:34;;;;;;;17.58;10.98;;;1.00;96.80;;;;;;2106244;28;20203;-69
2021/04/04 05:10:37;;;;;;;16.13;10.77;;;1.20;96.50;;;;;;2105283;28;20111;-69
2021/04/04 05:11:44;;;;;;;14.88;9.85;;;1.40;96.30;;;;;;2105664;28;20097;-69
2021/04/04 05:12:50;;;;;;;15.52;10.20;;;1.70;95.70;;;;;;2105263;28;20020;-69
2021/04/04 05:13:51;;;;;;;15.13;9.82;;;2.00;95.20;;;;;;2105085;28;20031;-70
2021/04/04 05:14:53;;;;;;;15.35;9.90;;;2.30;94.60;;;;;;2105347;28;20539;-69
2021/04/04 05:15:54;;;;;;;13.98;8.85;;;2.60;94.30;;;;;;2106020;28;20530;-69
2021/04/04 05:16:55;;;;;;;13.48;9.30;;;2.80;93.10;;;;;;2105781;28;20453;-69
2021/04/04 05:17:56;;;;;;;15.02;9.20;;;3.10;92.40;;;;;;2105902;28;20053;-70
2021/04/04 05:18:58;;;;;;;14.30;8.98;;;3.30;91.80;;;;;;2105958;28;20060;-70
2021/04/04 05:20:00;;;;;;;14.65;8.88;;;3.50;91.10;;;;;;2105854;28;20054;-69
2021/04/04 05:21:01;;;;;;;13.30;8.55;;;3.70;90.30;;;;;;2105235;28;20422;-69
2021/04/04 05:22:02;;;;;;;13.13;8.63;;;4.00;89.30;;;;;;2096796;28;20036;-69
2021/04/04 05:23:02;;;;;;;14.57;8.10;;;4.10;87.90;;;;;;2105208;28;20027;-69
2021/04/04 05:24:08;;;;;;;11.63;7.45;;;4.20;86.50;;;;;;2105706;28;20073;-69